ROMMA est une association bénévole à but non lucratif. Votre soutien est indispensable : ADHERER à ROMMA ou FAIRE un DON

Granges-lès-Beaumont - (26, Drôme)

Drôme des Collines (155 m)   Longitude: 04°58'E   Latitude: 45°03'N Station partenaire n°123
 

Détail journalier du     <<     >>

Température Precipitation Humidité Pression Vent Dir Rafale Dir. rafale Ensol.
Heure (°C) (mm) (%) (hPa) (km/h) (km/h) (min)
01:00 0.708410303NNO8NNO0
02:00 0.008510301NNO6NNO0
03:00 -0.6086103000---0
04:00 -1.2087103000---0
05:00 -1.8088103000---0
06:00 -2.0089103106NNO0
07:00 -2.108810312NNO6NNO0
08:00 -2.008910313ENE11ENE0
09:00 1.108910313ENE11ENE50
10:00 3.308410312ENE8ENE20
11:00 7.007110314E11E10
12:00 10.006010313ESE8E20
13:00 14.504810305SSE21SO60
14:00 17.0033102913SSO29S60
15:00 18.2028102815SSO35S60
16:00 17.4027102814S35S60
17:00 16.8030102712SSO31S60
18:00 14.903610278SSO21S40
19:00 12.604510285SSO13S0
20:00 7.206410282SSO6NE0
21:00 6.207010282NE6NE0
22:00 4.907010285ENE8ENE0
23:00 4.207410285ENE8ENE0
minuit 2.207910284ENE11ENE0

Graphique du 16-02-2019

 

Serveur OMMA